createdAt,value
2018-03-14T00:04:29.273Z,4.7
2018-03-14T00:10:20.155Z,5.39
2018-03-14T00:16:11.010Z,4.63
2018-03-14T00:22:01.858Z,4.69
2018-03-14T00:27:52.735Z,6.81
2018-03-14T00:33:43.547Z,5.76
2018-03-14T00:39:34.395Z,4.86
2018-03-14T00:45:25.261Z,11.54
2018-03-14T00:51:16.111Z,6.16
2018-03-14T00:57:06.981Z,6.21
2018-03-14T01:02:57.818Z,5.22
2018-03-14T01:08:48.682Z,7.42
2018-03-14T01:14:39.537Z,6.1
2018-03-14T01:20:30.373Z,6.62
2018-03-14T01:26:21.179Z,6.9
2018-03-14T01:32:12.078Z,5.5
2018-03-14T01:38:02.994Z,3.64
2018-03-14T01:43:53.757Z,3.94
2018-03-14T01:49:44.574Z,3.29
2018-03-14T01:55:35.446Z,4.38
2018-03-14T02:01:26.263Z,2.88
2018-03-14T02:07:17.113Z,3.51
2018-03-14T02:13:07.974Z,4.14
2018-03-14T02:18:58.833Z,9
2018-03-14T02:24:49.671Z,4.6
2018-03-14T02:30:40.559Z,4.27
2018-03-14T02:36:31.359Z,4.32
2018-03-14T02:42:22.280Z,6.74
2018-03-14T02:48:13.105Z,4.84
2018-03-14T02:54:03.933Z,3.63
2018-03-14T02:59:54.794Z,3.37
2018-03-14T03:05:45.659Z,5.56
2018-03-14T03:11:36.563Z,5.04
2018-03-14T03:17:27.351Z,9.02
2018-03-14T03:23:18.245Z,15.88
2018-03-14T03:29:09.048Z,3.11
2018-03-14T03:34:59.855Z,5.41
2018-03-14T03:40:50.718Z,2.37
2018-03-14T03:46:41.589Z,4.12
2018-03-14T03:52:32.427Z,4.97
2018-03-14T03:58:23.392Z,3.8
2018-03-14T04:04:14.136Z,7.46
2018-03-14T04:10:04.985Z,4.78
2018-03-14T04:15:55.833Z,3.37
2018-03-14T04:21:46.732Z,3.63
2018-03-14T04:27:37.513Z,9.49
2018-03-14T04:33:28.339Z,4.8
2018-03-14T04:39:19.184Z,5.08
2018-03-14T04:45:10.074Z,4.18
2018-03-14T04:51:00.908Z,3.21
2018-03-14T04:56:51.736Z,2.8
2018-03-14T05:02:42.594Z,6.35
2018-03-14T05:08:33.478Z,4.2
2018-03-14T05:14:24.293Z,7.13
2018-03-14T05:20:15.149Z,5.51
2018-03-14T05:26:05.990Z,3.48
2018-03-14T05:31:57.087Z,6.82
2018-03-14T05:37:47.659Z,6.53
2018-03-14T05:43:38.566Z,5.71
2018-03-14T05:49:29.383Z,7.4
2018-03-14T05:55:20.216Z,8.16
2018-03-14T06:01:11.073Z,4.24
2018-03-14T06:07:01.964Z,4.26
2018-03-14T06:12:52.739Z,8.27
2018-03-14T06:18:43.628Z,3.36
2018-03-14T06:24:34.434Z,14.35
2018-03-14T06:30:25.334Z,45.51
2018-03-14T06:36:16.174Z,43.87
2018-03-14T06:42:06.985Z,57.6
2018-03-14T06:47:57.897Z,83.91
2018-03-14T06:53:48.721Z,67.99
2018-03-14T06:59:39.558Z,75.47
2018-03-14T07:05:30.408Z,82.16
2018-03-14T07:11:21.219Z,102.64
2018-03-14T07:17:12.105Z,125.3
2018-03-14T07:23:02.953Z,118.12
2018-03-14T07:28:53.775Z,121.28
2018-03-14T07:34:44.655Z,149.52
2018-03-14T07:40:35.443Z,181.43
2018-03-14T07:46:26.406Z,203.59
2018-03-14T07:52:17.235Z,183.75
2018-03-14T07:58:08.077Z,185.99
2018-03-14T08:03:58.832Z,198.51
2018-03-14T08:09:49.773Z,243.49
2018-03-14T08:15:40.510Z,212.39
2018-03-14T08:21:31.420Z,173.85
2018-03-14T08:27:22.244Z,143.81
2018-03-14T08:33:13.111Z,174.36
2018-03-14T08:39:04.006Z,213.52
2018-03-14T08:44:54.765Z,203.05
2018-03-14T08:50:45.633Z,202.89
2018-03-14T08:56:36.477Z,263.87
2018-03-14T09:02:27.341Z,317.12
2018-03-14T09:08:18.220Z,245.11
2018-03-14T09:14:09.108Z,207.49
2018-03-14T09:19:59.900Z,150.37
2018-03-14T09:25:50.766Z,103.69
2018-03-14T09:31:41.674Z,74.39
2018-03-14T09:37:32.505Z,62.3
2018-03-14T09:43:23.403Z,95.53
2018-03-14T09:49:14.205Z,120.36
2018-03-14T09:55:05.138Z,136.07
2018-03-14T10:00:55.931Z,109.97
2018-03-14T10:06:46.799Z,112.78
2018-03-14T10:12:37.722Z,67.07
2018-03-14T10:18:28.516Z,55.07
2018-03-14T10:24:19.383Z,39.57
2018-03-14T10:30:10.241Z,44.41
2018-03-14T10:36:01.078Z,46.55
2018-03-14T10:41:52.029Z,35.51
2018-03-14T10:47:42.903Z,31.85
2018-03-14T10:53:33.699Z,21.08
2018-03-14T10:59:24.593Z,14.66
2018-03-14T11:05:15.431Z,12.44
2018-03-14T11:11:06.278Z,17.8
2018-03-14T11:16:57.166Z,10.88
2018-03-14T11:22:48.039Z,14.6
2018-03-14T11:28:38.857Z,18.11
2018-03-14T11:34:29.788Z,27.96
2018-03-14T11:40:20.618Z,37.19
2018-03-14T11:46:11.488Z,64.57
2018-03-14T11:52:02.380Z,49.03
2018-03-14T11:57:53.224Z,45.53
2018-03-14T12:03:44.115Z,48.47
2018-03-14T12:09:35.039Z,42.09
2018-03-14T12:15:25.872Z,33.8
2018-03-14T12:21:16.760Z,42.14
2018-03-14T12:27:07.663Z,46.99
2018-03-14T12:32:58.564Z,87.69
2018-03-14T12:38:49.415Z,121.67
2018-03-14T12:44:40.347Z,85.7
2018-03-14T12:50:31.249Z,63.51
2018-03-14T12:56:22.120Z,51.16
2018-03-14T13:02:13.035Z,37.39
2018-03-14T13:08:03.864Z,32.2
2018-03-14T13:13:54.718Z,24.38
2018-03-14T13:19:45.623Z,20.57
2018-03-14T13:25:36.496Z,14.15
2018-03-14T13:31:27.327Z,11.94
2018-03-14T13:37:18.260Z,8.96
2018-03-14T13:43:09.123Z,12.11
2018-03-14T13:48:59.982Z,10.3
2018-03-14T13:54:50.900Z,17.37
2018-03-14T14:00:41.772Z,83.99
2018-03-14T14:06:32.654Z,50.92
2018-03-14T14:12:23.542Z,41.93
2018-03-14T14:18:14.463Z,28.64
2018-03-14T14:24:05.322Z,23.66
2018-03-14T14:29:56.242Z,20.14
2018-03-14T14:35:47.133Z,16.26
2018-03-14T14:41:38.138Z,17.57
2018-03-14T14:47:28.956Z,13.07
2018-03-14T14:53:19.849Z,19.19
2018-03-14T14:59:10.735Z,15.14
2018-03-14T15:05:01.710Z,10.58
2018-03-14T15:10:52.569Z,20.12
2018-03-14T15:16:43.401Z,16.55
2018-03-14T15:22:34.364Z,15.55
2018-03-14T15:28:25.225Z,13.78
2018-03-14T15:34:16.143Z,13.7
2018-03-14T15:40:07.011Z,17.96
2018-03-14T15:45:57.861Z,14.65
2018-03-14T15:51:48.749Z,19.54
2018-03-14T15:57:39.638Z,12.38
2018-03-14T16:03:30.551Z,7.97
2018-03-14T16:09:21.405Z,8.98
2018-03-14T16:15:12.300Z,6.98
2018-03-14T16:21:03.179Z,9.83
2018-03-14T16:26:54.054Z,5.99
2018-03-14T16:32:44.953Z,12.5
2018-03-14T16:38:35.858Z,4.36
2018-03-14T16:44:26.737Z,6.76
2018-03-14T16:50:17.652Z,6.26
2018-03-14T16:56:08.470Z,5.7
2018-03-14T17:01:59.345Z,5.68
2018-03-14T17:07:50.225Z,4.97
2018-03-14T17:13:41.083Z,7.11
2018-03-14T17:19:31.943Z,7.18
2018-03-14T17:25:22.847Z,8.86
2018-03-14T17:31:13.703Z,6.91
2018-03-14T17:37:04.538Z,9.06
2018-03-14T17:42:55.467Z,10.98
2018-03-14T17:48:46.327Z,7.04
2018-03-14T17:54:37.195Z,13.56
2018-03-14T18:00:28.050Z,7.08
2018-03-14T18:06:18.914Z,8.41
2018-03-14T18:12:09.783Z,15.09
2018-03-14T18:18:00.668Z,10.1
2018-03-14T18:23:51.554Z,10.98
2018-03-14T18:29:42.439Z,10.17
2018-03-14T18:35:33.242Z,8.35
2018-03-14T18:41:24.134Z,12.26
2018-03-14T18:53:05.844Z,7.7
2018-03-14T18:58:56.718Z,8.76
2018-03-14T19:04:47.589Z,14.8
2018-03-14T19:10:38.499Z,10.73
2018-03-14T19:16:29.347Z,14.34
2018-03-14T19:22:20.178Z,18.42
2018-03-14T19:28:11.014Z,10.86
2018-03-14T19:34:01.897Z,10.53
2018-03-14T19:39:52.820Z,11.31
2018-03-14T19:45:43.636Z,14.72
2018-03-14T19:51:34.505Z,20.44
2018-03-14T19:57:25.372Z,13.3
2018-03-14T20:03:16.221Z,12.34
2018-03-14T20:09:07.122Z,13.7
2018-03-14T20:14:57.975Z,14.86
2018-03-14T20:20:48.829Z,12.87
2018-03-14T20:26:39.639Z,11.24
2018-03-14T20:32:30.497Z,13.46
2018-03-14T20:38:21.420Z,8.99
2018-03-14T20:44:12.306Z,13.45
2018-03-14T20:50:03.211Z,14.68
2018-03-14T20:55:53.990Z,10.52
2018-03-14T21:01:44.845Z,15.38
2018-03-14T21:07:35.683Z,17.64
2018-03-14T21:13:26.529Z,11.23
2018-03-14T21:19:17.383Z,12.26
2018-03-14T21:25:08.290Z,21.29
2018-03-14T21:30:59.094Z,14.08
2018-03-14T21:36:49.949Z,18.24
2018-03-14T21:42:40.822Z,14.02
2018-03-14T21:48:31.680Z,15.99
2018-03-14T21:54:22.546Z,13.62
2018-03-14T22:00:13.416Z,14.11
2018-03-14T22:06:04.313Z,12.52
2018-03-14T22:11:55.233Z,13.34
2018-03-14T22:17:45.976Z,10.66
2018-03-14T22:23:36.809Z,9.86
2018-03-14T22:29:27.671Z,12.95
2018-03-14T22:35:18.518Z,12.23
2018-03-14T22:41:09.383Z,13.8
2018-03-14T22:47:00.279Z,14.59
2018-03-14T22:52:51.140Z,13.03
2018-03-14T22:58:41.945Z,9.27
2018-03-14T23:04:32.771Z,8.4
2018-03-14T23:10:23.675Z,9.11
2018-03-14T23:16:14.509Z,10.83
2018-03-14T23:22:05.316Z,11.5
2018-03-14T23:27:56.198Z,11.26
2018-03-14T23:33:47.032Z,8.05
2018-03-14T23:39:37.913Z,11.53
2018-03-14T23:45:28.774Z,10.18
2018-03-14T23:51:19.553Z,10.36
2018-03-14T23:57:10.447Z,14.66
